createdAt,value
2022-08-25T00:01:31.377Z,18.48
2022-08-25T00:04:35.944Z,18.45
2022-08-25T00:07:39.658Z,18.45
2022-08-25T00:10:42.862Z,18.34
2022-08-25T00:13:54.218Z,18.23
2022-08-25T00:16:57.669Z,18.26
2022-08-25T00:20:00.305Z,18.29
2022-08-25T00:23:03.327Z,18.14
2022-08-25T00:26:08.563Z,18.00
2022-08-25T00:29:11.765Z,18.07
2022-08-25T00:32:15.377Z,18.00
2022-08-25T00:35:18.322Z,18.10
2022-08-25T00:38:21.028Z,18.15
2022-08-25T00:41:25.464Z,18.11
2022-08-25T00:44:31.664Z,18.13
2022-08-25T00:47:34.755Z,18.08
2022-08-25T00:50:37.413Z,17.97
2022-08-25T00:53:40.969Z,18.05
2022-08-25T00:56:45.365Z,18.12
2022-08-25T00:59:48.480Z,18.20
2022-08-25T01:02:53.525Z,18.28
2022-08-25T01:05:57.123Z,18.25
2022-08-25T01:09:01.088Z,18.23
2022-08-25T01:12:04.798Z,18.08
2022-08-25T01:15:10.095Z,18.02
2022-08-25T01:18:14.824Z,17.89
2022-08-25T01:21:19.719Z,17.89
2022-08-25T01:24:44.820Z,17.87
2022-08-25T01:27:51.180Z,17.89
2022-08-25T01:30:54.453Z,17.89
2022-08-25T01:33:59.133Z,17.89
2022-08-25T01:37:03.649Z,17.94
2022-08-25T01:40:06.915Z,17.84
2022-08-25T01:43:16.995Z,18.08
2022-08-25T01:46:19.636Z,18.14
2022-08-25T01:49:22.941Z,18.20
2022-08-25T01:52:32.325Z,18.20
2022-08-25T01:55:51.718Z,18.17
2022-08-25T01:58:54.621Z,18.08
2022-08-25T02:01:59.936Z,18.05
2022-08-25T02:05:03.931Z,17.94
2022-08-25T02:08:07.277Z,18.01
2022-08-25T02:11:14.484Z,17.99
2022-08-25T02:14:18.460Z,18.00
2022-08-25T02:17:21.467Z,18.04
2022-08-25T02:20:25.290Z,18.03
2022-08-25T02:23:28.767Z,18.01
2022-08-25T02:26:31.668Z,17.99
2022-08-25T02:29:34.642Z,17.82
2022-08-25T02:32:37.234Z,17.91
2022-08-25T02:35:40.336Z,17.96
2022-08-25T02:38:43.218Z,17.84
2022-08-25T02:41:46.207Z,17.86
2022-08-25T02:44:49.118Z,17.84
2022-08-25T02:47:52.302Z,17.84
2022-08-25T02:50:55.495Z,17.78
2022-08-25T02:54:02.147Z,17.79
2022-08-25T02:57:04.812Z,17.80
2022-08-25T03:00:10.755Z,17.79
2022-08-25T03:03:15.719Z,17.76
2022-08-25T03:06:23.027Z,17.80
2022-08-25T03:09:27.248Z,17.78
2022-08-25T03:12:31.163Z,17.62
2022-08-25T03:15:34.052Z,17.78
2022-08-25T03:18:37.989Z,17.70
2022-08-25T03:21:40.679Z,17.65
2022-08-25T03:24:43.620Z,17.69
2022-08-25T03:27:49.479Z,17.71
2022-08-25T03:30:56.124Z,17.69
2022-08-25T03:33:59.773Z,17.70
2022-08-25T03:37:02.751Z,17.63
2022-08-25T03:40:09.566Z,17.47
2022-08-25T03:43:19.108Z,17.54
2022-08-25T03:46:25.684Z,17.58
2022-08-25T03:49:29.494Z,17.63
2022-08-25T03:52:33.180Z,17.65
2022-08-25T03:55:36.120Z,17.63
2022-08-25T03:58:39.089Z,17.53
2022-08-25T04:01:43.911Z,17.50
2022-08-25T04:04:46.875Z,17.49
2022-08-25T04:07:49.568Z,17.50
2022-08-25T04:10:52.520Z,17.48
2022-08-25T04:13:58.363Z,17.54
2022-08-25T04:17:01.478Z,17.58
2022-08-25T04:20:04.753Z,17.58
2022-08-25T04:23:09.258Z,17.55
2022-08-25T04:26:15.079Z,17.56
2022-08-25T04:29:23.513Z,17.58
2022-08-25T04:32:26.750Z,17.56
2022-08-25T04:35:29.867Z,17.66
2022-08-25T04:38:33.309Z,17.74
2022-08-25T04:41:36.424Z,17.73
2022-08-25T04:44:39.096Z,17.74
2022-08-25T04:47:42.039Z,17.81
2022-08-25T04:50:44.665Z,17.86
2022-08-25T04:53:47.598Z,17.92
2022-08-25T04:56:54.530Z,18.04
2022-08-25T05:00:02.203Z,18.10
2022-08-25T05:03:06.195Z,18.25
2022-08-25T05:06:11.819Z,18.33
2022-08-25T05:09:19.806Z,18.44
2022-08-25T05:12:24.624Z,18.54
2022-08-25T05:15:45.915Z,18.67
2022-08-25T05:18:50.266Z,18.83
2022-08-25T05:21:54.019Z,18.86
2022-08-25T05:24:57.110Z,19.00
2022-08-25T05:27:59.886Z,19.23
2022-08-25T05:31:04.712Z,19.34
2022-08-25T05:34:08.932Z,19.49
2022-08-25T05:37:12.349Z,19.63
2022-08-25T05:40:15.109Z,19.80
2022-08-25T05:43:18.063Z,19.99
2022-08-25T05:46:22.288Z,20.24
2022-08-25T05:49:25.298Z,20.36
2022-08-25T05:52:28.571Z,20.68
2022-08-25T05:55:31.830Z,20.79
2022-08-25T05:58:34.633Z,20.93
2022-08-25T06:01:56.235Z,21.08
2022-08-25T06:04:59.219Z,21.12
2022-08-25T06:08:02.287Z,21.31
2022-08-25T06:11:05.418Z,21.39
2022-08-25T06:14:10.097Z,21.52
2022-08-25T06:17:13.019Z,21.63
2022-08-25T06:20:22.183Z,21.78
2022-08-25T06:23:28.503Z,21.92
2022-08-25T06:26:31.846Z,22.05
2022-08-25T06:29:34.756Z,22.12
2022-08-25T06:32:40.111Z,22.24
2022-08-25T06:35:44.395Z,22.36
2022-08-25T06:38:48.188Z,22.41
2022-08-25T06:41:56.504Z,22.63
2022-08-25T06:45:01.514Z,22.68
2022-08-25T06:48:04.973Z,22.81
2022-08-25T06:51:14.413Z,23.04
2022-08-25T06:54:17.428Z,23.20
2022-08-25T06:57:20.175Z,23.36
2022-08-25T07:00:25.229Z,23.25
2022-08-25T07:03:33.688Z,23.55
2022-08-25T07:06:37.005Z,23.53
2022-08-25T07:09:39.743Z,23.64
2022-08-25T07:12:42.823Z,23.76
2022-08-25T07:15:45.614Z,23.86
2022-08-25T07:18:49.454Z,23.95
2022-08-25T07:21:54.313Z,24.03
2022-08-25T07:24:57.352Z,24.19
2022-08-25T07:28:00.180Z,24.26
2022-08-25T07:31:03.184Z,24.41
2022-08-25T07:34:26.868Z,24.38
2022-08-25T07:37:49.333Z,24.45
2022-08-25T07:41:01.308Z,24.40
2022-08-25T07:44:05.619Z,24.60
2022-08-25T07:47:08.180Z,24.58
2022-08-25T07:50:13.192Z,24.80
2022-08-25T07:53:17.842Z,24.89
2022-08-25T07:56:21.119Z,25.06
2022-08-25T07:59:24.049Z,25.04
2022-08-25T08:02:27.203Z,25.18
2022-08-25T08:05:30.260Z,25.30
2022-08-25T08:08:33.468Z,25.44
2022-08-25T08:11:45.112Z,25.42
2022-08-25T08:14:48.542Z,25.52
2022-08-25T08:17:51.595Z,25.74
2022-08-25T08:20:54.728Z,25.78
2022-08-25T08:23:59.289Z,25.81
2022-08-25T08:27:02.844Z,25.93
2022-08-25T08:30:06.773Z,26.16
2022-08-25T08:33:11.368Z,26.25
2022-08-25T08:36:15.988Z,26.23
2022-08-25T08:39:19.479Z,26.47
2022-08-25T08:42:48.938Z,26.59
2022-08-25T08:45:53.922Z,26.69
2022-08-25T08:49:11.353Z,26.87
2022-08-25T08:52:16.788Z,26.89
2022-08-25T08:55:41.867Z,26.71
2022-08-25T08:59:06.220Z,26.90
2022-08-25T09:02:39.468Z,26.92
2022-08-25T09:05:59.177Z,27.03
2022-08-25T09:09:06.934Z,27.01
2022-08-25T09:12:09.914Z,27.23
2022-08-25T09:16:10.987Z,27.33
2022-08-25T09:20:02.323Z,27.66
2022-08-25T09:23:36.303Z,27.85
2022-08-25T09:26:47.927Z,27.67
2022-08-25T09:30:07.319Z,27.78
2022-08-25T09:33:20.907Z,27.86
2022-08-25T09:36:24.805Z,27.83
2022-08-25T09:39:27.794Z,27.74
2022-08-25T09:42:57.710Z,27.96
2022-08-25T09:46:09.506Z,28.06
2022-08-25T09:49:13.435Z,28.32
2022-08-25T09:52:32.692Z,28.33
2022-08-25T09:55:39.335Z,28.05
2022-08-25T09:58:42.079Z,28.23
2022-08-25T10:01:58.259Z,28.55
2022-08-25T10:05:26.393Z,28.70
2022-08-25T10:08:33.944Z,28.55
2022-08-25T10:11:48.290Z,28.65
2022-08-25T10:14:51.870Z,28.56
2022-08-25T10:18:26.046Z,28.67
2022-08-25T10:21:29.152Z,28.89
2022-08-25T10:24:33.037Z,29.08
2022-08-25T10:28:02.979Z,29.12
2022-08-25T10:31:24.845Z,29.13
2022-08-25T10:34:37.664Z,28.97
2022-08-25T10:38:24.453Z,29.13
2022-08-25T10:42:05.351Z,29.21
2022-08-25T10:45:34.406Z,29.38
2022-08-25T10:48:56.527Z,29.46
2022-08-25T10:52:07.709Z,29.51
2022-08-25T10:55:40.307Z,29.66
2022-08-25T10:58:54.439Z,29.69
2022-08-25T11:02:24.050Z,29.86
2022-08-25T11:05:42.976Z,30.13
2022-08-25T11:08:54.920Z,30.04
2022-08-25T11:11:58.626Z,30.15
2022-08-25T11:15:12.203Z,30.11
2022-08-25T11:18:15.817Z,30.30
2022-08-25T11:21:24.903Z,29.81
2022-08-25T11:24:32.805Z,29.60
2022-08-25T11:27:38.812Z,29.30
2022-08-25T11:30:42.488Z,29.38
2022-08-25T11:33:45.428Z,29.54
2022-08-25T11:37:01.062Z,29.87
2022-08-25T11:40:36.792Z,29.65
2022-08-25T11:43:40.584Z,30.10
2022-08-25T11:46:50.272Z,30.41
2022-08-25T11:49:53.503Z,30.36
2022-08-25T11:53:00.361Z,30.50
2022-08-25T11:56:33.031Z,30.24
2022-08-25T11:59:49.661Z,30.45
2022-08-25T12:02:52.633Z,30.45
2022-08-25T12:06:25.008Z,30.59
2022-08-25T12:09:28.429Z,30.68
2022-08-25T12:12:45.523Z,30.79
2022-08-25T12:15:48.292Z,30.89
2022-08-25T12:18:52.583Z,31.11
2022-08-25T12:22:17.057Z,31.28
2022-08-25T12:25:39.197Z,31.16
2022-08-25T12:29:11.885Z,31.32
2022-08-25T12:32:34.044Z,31.22
2022-08-25T12:35:52.808Z,31.70
2022-08-25T12:39:15.255Z,32.11
2022-08-25T12:42:35.300Z,32.36
2022-08-25T12:45:44.045Z,31.47
2022-08-25T12:49:15.641Z,30.83
2022-08-25T12:52:22.547Z,30.40
2022-08-25T12:55:30.678Z,30.53
2022-08-25T12:59:00.792Z,30.42
2022-08-25T13:02:22.618Z,31.04
2022-08-25T13:05:36.914Z,31.06
2022-08-25T13:08:48.925Z,31.10
2022-08-25T13:12:20.125Z,31.74
2022-08-25T13:15:48.788Z,31.74
2022-08-25T13:19:01.763Z,31.80
2022-08-25T13:22:16.231Z,31.14
2022-08-25T13:25:27.087Z,30.93
2022-08-25T13:28:40.849Z,30.73
2022-08-25T13:31:55.215Z,30.50
2022-08-25T13:35:28.942Z,30.85
2022-08-25T13:38:35.502Z,30.99
2022-08-25T13:41:45.173Z,30.81
2022-08-25T13:44:52.347Z,31.19
2022-08-25T13:47:57.183Z,31.60
2022-08-25T13:51:31.299Z,31.61
2022-08-25T13:54:42.217Z,31.90
2022-08-25T13:57:45.490Z,31.96
2022-08-25T14:01:32.264Z,31.96
2022-08-25T14:04:40.039Z,32.21
2022-08-25T14:08:03.851Z,31.40
2022-08-25T14:11:32.307Z,30.91
2022-08-25T14:14:35.604Z,30.63
2022-08-25T14:17:41.365Z,30.62
2022-08-25T14:20:50.724Z,30.54
2022-08-25T14:23:55.349Z,30.34
2022-08-25T14:26:57.971Z,30.66
2022-08-25T14:30:01.043Z,31.16
2022-08-25T14:33:04.704Z,31.50
2022-08-25T14:36:10.415Z,31.57
2022-08-25T14:39:13.141Z,31.47
2022-08-25T14:42:16.832Z,31.62
2022-08-25T14:45:20.220Z,31.32
2022-08-25T14:48:35.351Z,30.93
2022-08-25T14:51:43.382Z,30.50
2022-08-25T14:54:47.072Z,30.47
2022-08-25T14:57:49.731Z,30.36
2022-08-25T15:00:52.974Z,30.37
2022-08-25T15:04:01.349Z,30.70
2022-08-25T15:07:24.587Z,30.87
2022-08-25T15:10:27.405Z,30.77
2022-08-25T15:13:30.332Z,30.77
2022-08-25T15:16:38.087Z,30.87
2022-08-25T15:19:41.373Z,31.13
2022-08-25T15:22:45.498Z,30.97
2022-08-25T15:25:52.878Z,30.78
2022-08-25T15:28:55.825Z,30.82
2022-08-25T15:32:00.270Z,30.76
2022-08-25T15:35:03.125Z,30.89
2022-08-25T15:38:08.068Z,31.10
2022-08-25T15:41:12.229Z,31.28
2022-08-25T15:44:15.089Z,31.29
2022-08-25T15:47:17.876Z,31.36
2022-08-25T15:50:25.907Z,31.26
2022-08-25T15:53:29.779Z,31.19
2022-08-25T15:56:32.740Z,30.93
2022-08-25T15:59:35.395Z,30.94
2022-08-25T16:02:39.577Z,30.97
2022-08-25T16:05:48.153Z,30.91
2022-08-25T16:08:51.421Z,30.82
2022-08-25T16:11:58.995Z,30.92
2022-08-25T16:15:06.004Z,30.67
2022-08-25T16:18:11.376Z,30.58
2022-08-25T16:21:17.643Z,30.45
2022-08-25T16:24:20.618Z,30.25
2022-08-25T16:27:24.286Z,30.28
2022-08-25T16:30:27.199Z,30.03
2022-08-25T16:33:32.110Z,29.95
2022-08-25T16:36:37.060Z,29.68
2022-08-25T16:39:44.231Z,29.49
2022-08-25T16:42:47.211Z,29.36
2022-08-25T16:45:58.690Z,29.10
2022-08-25T16:49:03.072Z,28.77
2022-08-25T16:52:28.489Z,28.49
2022-08-25T16:55:39.205Z,28.28
2022-08-25T16:58:42.221Z,28.09
2022-08-25T17:01:48.805Z,27.90
2022-08-25T17:04:53.541Z,27.70
2022-08-25T17:08:21.108Z,27.58
2022-08-25T17:11:32.848Z,27.44
2022-08-25T17:14:35.788Z,27.09
2022-08-25T17:17:38.443Z,27.00
2022-08-25T17:20:45.326Z,26.92
2022-08-25T17:23:48.436Z,26.76
2022-08-25T17:26:55.048Z,26.56
2022-08-25T17:29:58.063Z,26.40
2022-08-25T17:33:01.238Z,26.22
2022-08-25T17:36:06.028Z,26.14
2022-08-25T17:39:11.028Z,26.03
2022-08-25T17:42:13.925Z,25.88
2022-08-25T17:45:17.032Z,25.77
2022-08-25T17:48:20.320Z,25.68
2022-08-25T17:51:23.436Z,25.51
2022-08-25T17:54:26.155Z,25.56
2022-08-25T17:57:30.781Z,25.47
2022-08-25T18:00:34.091Z,25.45
2022-08-25T18:03:37.573Z,25.38
2022-08-25T18:06:40.208Z,25.30
2022-08-25T18:09:44.138Z,25.36
2022-08-25T18:12:47.649Z,25.32
2022-08-25T18:15:50.756Z,25.27
2022-08-25T18:18:54.117Z,25.24
2022-08-25T18:21:57.063Z,25.26
2022-08-25T18:25:01.192Z,25.16
2022-08-25T18:28:06.297Z,25.20
2022-08-25T18:31:09.390Z,25.12
2022-08-25T18:34:13.600Z,25.18
2022-08-25T18:37:35.264Z,25.12
2022-08-25T18:40:38.532Z,25.06
2022-08-25T18:43:41.175Z,25.01
2022-08-25T18:46:45.539Z,24.99
2022-08-25T18:49:48.677Z,24.96
2022-08-25T18:52:51.821Z,24.92
2022-08-25T18:55:58.911Z,24.91
2022-08-25T18:59:02.653Z,24.91
2022-08-25T19:02:07.155Z,24.87
2022-08-25T19:05:10.722Z,24.86
2022-08-25T19:08:15.663Z,24.78
2022-08-25T19:11:22.219Z,24.80
2022-08-25T19:14:26.273Z,24.71
2022-08-25T19:17:29.461Z,24.73
2022-08-25T19:20:42.360Z,24.76
2022-08-25T19:23:45.306Z,24.78
2022-08-25T19:26:51.386Z,24.74
2022-08-25T19:29:57.391Z,24.69
2022-08-25T19:33:00.550Z,24.67
2022-08-25T19:36:04.743Z,24.68
2022-08-25T19:39:10.275Z,24.68
2022-08-25T19:42:30.878Z,24.65
2022-08-25T19:45:36.853Z,24.65
2022-08-25T19:48:40.921Z,24.61
2022-08-25T19:51:47.650Z,24.54
2022-08-25T19:54:53.639Z,24.52
2022-08-25T19:57:56.406Z,24.50
2022-08-25T20:00:59.397Z,24.43
2022-08-25T20:04:03.655Z,24.37
2022-08-25T20:07:06.398Z,24.40
2022-08-25T20:10:14.118Z,24.30
2022-08-25T20:13:17.098Z,24.22
2022-08-25T20:16:20.758Z,24.15
2022-08-25T20:19:23.484Z,24.08
2022-08-25T20:22:30.287Z,23.95
2022-08-25T20:25:37.013Z,23.90
2022-08-25T20:28:42.263Z,23.89
2022-08-25T20:31:45.345Z,23.82
2022-08-25T20:34:49.428Z,23.76
2022-08-25T20:37:53.062Z,23.64
2022-08-25T20:40:56.231Z,23.61
2022-08-25T20:43:58.822Z,23.63
2022-08-25T20:47:03.956Z,23.55
2022-08-25T20:50:07.530Z,23.52
2022-08-25T20:53:13.628Z,23.46
2022-08-25T20:56:18.805Z,23.42
2022-08-25T20:59:27.312Z,23.33
2022-08-25T21:02:30.626Z,23.31
2022-08-25T21:05:34.073Z,23.18
2022-08-25T21:08:41.390Z,23.24
2022-08-25T21:11:53.191Z,23.29
2022-08-25T21:14:55.906Z,23.21
2022-08-25T21:18:00.209Z,23.20
2022-08-25T21:21:11.354Z,23.09
2022-08-25T21:24:14.645Z,23.07
2022-08-25T21:27:17.278Z,22.98
2022-08-25T21:30:20.316Z,22.94
2022-08-25T21:33:23.152Z,22.86
2022-08-25T21:36:32.201Z,22.81
2022-08-25T21:39:35.244Z,22.90
2022-08-25T21:42:39.521Z,22.81
2022-08-25T21:45:46.822Z,22.74
2022-08-25T21:48:50.852Z,22.67
2022-08-25T21:52:00.925Z,22.64
2022-08-25T21:55:05.850Z,22.52
2022-08-25T21:58:08.602Z,22.50
2022-08-25T22:04:21.908Z,22.44
2022-08-25T22:07:26.339Z,22.47
2022-08-25T22:10:29.299Z,22.42
2022-08-25T22:13:32.770Z,22.39
2022-08-25T22:16:37.584Z,22.40
2022-08-25T22:19:40.934Z,22.40
2022-08-25T22:22:43.948Z,22.36
2022-08-25T22:25:47.659Z,22.32
2022-08-25T22:28:51.299Z,22.32
2022-08-25T22:31:59.967Z,22.29
2022-08-25T22:35:05.645Z,22.21
2022-08-25T22:38:12.242Z,22.16
2022-08-25T22:41:19.119Z,22.09
2022-08-25T22:44:25.724Z,22.05
2022-08-25T22:47:28.611Z,21.98
2022-08-25T22:50:36.093Z,21.91
2022-08-25T22:53:40.731Z,21.86
2022-08-25T22:56:43.708Z,21.83
2022-08-25T22:59:46.725Z,21.76
2022-08-25T23:02:53.274Z,21.77
2022-08-25T23:05:56.868Z,21.71
2022-08-25T23:08:59.731Z,21.68
2022-08-25T23:12:04.868Z,21.62
2022-08-25T23:15:12.095Z,21.52
2022-08-25T23:18:15.656Z,21.54
2022-08-25T23:21:41.140Z,21.46
2022-08-25T23:24:46.897Z,21.42
2022-08-25T23:27:49.504Z,21.41
2022-08-25T23:30:59.102Z,21.33
2022-08-25T23:34:02.795Z,21.23
2022-08-25T23:37:07.718Z,21.19
2022-08-25T23:40:11.982Z,21.18
2022-08-25T23:43:22.196Z,21.20
2022-08-25T23:46:29.042Z,21.12
2022-08-25T23:49:32.691Z,21.14
2022-08-25T23:52:36.268Z,21.11
2022-08-25T23:55:39.470Z,21.01
2022-08-25T23:58:55.671Z,20.97
